sensor_id;sensor_type;location;lat;lon;timestamp;P1;durP1;ratioP1;P2;durP2;ratioP2
45254;SDS011;30989;52.078;21.014;2023-04-25T00:01:20;21.80;;;10.68;;
45254;SDS011;30989;52.078;21.014;2023-04-25T00:03:47;26.23;;;12.77;;
45254;SDS011;30989;52.078;21.014;2023-04-25T00:06:13;19.85;;;10.85;;
45254;SDS011;30989;52.078;21.014;2023-04-25T00:08:39;21.05;;;11.43;;
45254;SDS011;30989;52.078;21.014;2023-04-25T00:11:04;19.73;;;10.65;;
45254;SDS011;30989;52.078;21.014;2023-04-25T00:13:30;17.38;;;9.50;;
45254;SDS011;30989;52.078;21.014;2023-04-25T00:15:55;15.88;;;9.65;;
45254;SDS011;30989;52.078;21.014;2023-04-25T00:18:25;14.80;;;8.68;;
45254;SDS011;30989;52.078;21.014;2023-04-25T00:20:53;17.23;;;7.28;;
45254;SDS011;30989;52.078;21.014;2023-04-25T00:23:19;15.77;;;7.75;;
45254;SDS011;30989;52.078;21.014;2023-04-25T00:25:44;14.95;;;8.40;;
45254;SDS011;30989;52.078;21.014;2023-04-25T00:28:11;14.63;;;8.10;;
45254;SDS011;30989;52.078;21.014;2023-04-25T00:30:37;13.02;;;7.80;;
45254;SDS011;30989;52.078;21.014;2023-04-25T00:33:02;13.20;;;7.07;;
45254;SDS011;30989;52.078;21.014;2023-04-25T00:35:28;18.40;;;7.97;;
45254;SDS011;30989;52.078;21.014;2023-04-25T00:37:53;14.40;;;7.78;;
45254;SDS011;30989;52.078;21.014;2023-04-25T00:40:20;14.48;;;7.78;;
45254;SDS011;30989;52.078;21.014;2023-04-25T00:42:46;12.85;;;7.38;;
45254;SDS011;30989;52.078;21.014;2023-04-25T00:45:12;12.90;;;7.80;;
45254;SDS011;30989;52.078;21.014;2023-04-25T00:47:42;16.35;;;7.82;;
45254;SDS011;30989;52.078;21.014;2023-04-25T00:50:08;12.43;;;7.25;;
45254;SDS011;30989;52.078;21.014;2023-04-25T00:52:34;12.80;;;7.28;;
45254;SDS011;30989;52.078;21.014;2023-04-25T00:54:59;14.45;;;7.40;;
45254;SDS011;30989;52.078;21.014;2023-04-25T00:57:25;15.88;;;8.35;;
45254;SDS011;30989;52.078;21.014;2023-04-25T00:59:51;17.88;;;8.82;;
45254;SDS011;30989;52.078;21.014;2023-04-25T01:02:18;12.35;;;7.47;;
45254;SDS011;30989;52.078;21.014;2023-04-25T01:04:45;14.45;;;8.18;;
45254;SDS011;30989;52.078;21.014;2023-04-25T01:07:12;13.10;;;7.20;;
45254;SDS011;30989;52.078;21.014;2023-04-25T01:09:38;18.42;;;9.23;;
45254;SDS011;30989;52.078;21.014;2023-04-25T01:12:03;13.20;;;7.95;;
45254;SDS011;30989;52.078;21.014;2023-04-25T01:14:29;15.38;;;8.30;;
45254;SDS011;30989;52.078;21.014;2023-04-25T01:16:55;14.45;;;8.40;;
45254;SDS011;30989;52.078;21.014;2023-04-25T01:19:20;15.40;;;8.63;;
45254;SDS011;30989;52.078;21.014;2023-04-25T01:21:46;15.93;;;8.55;;
45254;SDS011;30989;52.078;21.014;2023-04-25T01:24:12;17.25;;;9.60;;
45254;SDS011;30989;52.078;21.014;2023-04-25T01:26:38;18.90;;;9.95;;
45254;SDS011;30989;52.078;21.014;2023-04-25T01:29:06;15.32;;;8.77;;
45254;SDS011;30989;52.078;21.014;2023-04-25T01:31:33;16.23;;;8.50;;
45254;SDS011;30989;52.078;21.014;2023-04-25T01:34:00;19.05;;;9.48;;
45254;SDS011;30989;52.078;21.014;2023-04-25T01:36:27;15.00;;;8.85;;
45254;SDS011;30989;52.078;21.014;2023-04-25T01:38:53;15.50;;;8.38;;
45254;SDS011;30989;52.078;21.014;2023-04-25T01:41:20;14.57;;;8.98;;
45254;SDS011;30989;52.078;21.014;2023-04-25T01:43:48;14.98;;;8.98;;
45254;SDS011;30989;52.078;21.014;2023-04-25T01:46:14;12.48;;;7.90;;
45254;SDS011;30989;52.078;21.014;2023-04-25T01:48:39;15.70;;;9.52;;
45254;SDS011;30989;52.078;21.014;2023-04-25T01:51:05;16.60;;;9.00;;
45254;SDS011;30989;52.078;21.014;2023-04-25T01:53:31;20.02;;;8.88;;
45254;SDS011;30989;52.078;21.014;2023-04-25T01:55:58;15.02;;;9.82;;
45254;SDS011;30989;52.078;21.014;2023-04-25T01:58:26;15.80;;;8.75;;
45254;SDS011;30989;52.078;21.014;2023-04-25T02:00:58;16.93;;;9.00;;
45254;SDS011;30989;52.078;21.014;2023-04-25T02:03:28;18.45;;;9.80;;
45254;SDS011;30989;52.078;21.014;2023-04-25T02:05:55;19.88;;;8.95;;
45254;SDS011;30989;52.078;21.014;2023-04-25T02:08:21;15.25;;;9.20;;
45254;SDS011;30989;52.078;21.014;2023-04-25T02:10:47;14.32;;;9.00;;
45254;SDS011;30989;52.078;21.014;2023-04-25T02:13:16;19.92;;;9.80;;
45254;SDS011;30989;52.078;21.014;2023-04-25T02:15:53;12.98;;;8.05;;
45254;SDS011;30989;52.078;21.014;2023-04-25T02:18:19;13.02;;;7.97;;
45254;SDS011;30989;52.078;21.014;2023-04-25T02:20:46;14.43;;;8.77;;
45254;SDS011;30989;52.078;21.014;2023-04-25T02:23:12;11.18;;;7.38;;
45254;SDS011;30989;52.078;21.014;2023-04-25T02:25:38;12.48;;;7.95;;
45254;SDS011;30989;52.078;21.014;2023-04-25T02:28:03;13.88;;;8.38;;
45254;SDS011;30989;52.078;21.014;2023-04-25T02:30:29;12.18;;;8.27;;
45254;SDS011;30989;52.078;21.014;2023-04-25T02:32:55;13.00;;;7.95;;
45254;SDS011;30989;52.078;21.014;2023-04-25T02:35:21;15.60;;;8.80;;
45254;SDS011;30989;52.078;21.014;2023-04-25T02:37:47;13.40;;;7.90;;
45254;SDS011;30989;52.078;21.014;2023-04-25T02:40:12;14.10;;;7.63;;
45254;SDS011;30989;52.078;21.014;2023-04-25T02:42:38;11.25;;;6.15;;
45254;SDS011;30989;52.078;21.014;2023-04-25T02:45:03;16.35;;;6.97;;
45254;SDS011;30989;52.078;21.014;2023-04-25T02:47:29;9.82;;;5.97;;
45254;SDS011;30989;52.078;21.014;2023-04-25T02:49:55;13.18;;;5.70;;
45254;SDS011;30989;52.078;21.014;2023-04-25T02:52:21;12.00;;;6.38;;
45254;SDS011;30989;52.078;21.014;2023-04-25T02:54:54;11.90;;;6.63;;
45254;SDS011;30989;52.078;21.014;2023-04-25T02:57:19;10.88;;;5.78;;
45254;SDS011;30989;52.078;21.014;2023-04-25T02:59:45;12.18;;;5.68;;
45254;SDS011;30989;52.078;21.014;2023-04-25T03:02:10;10.43;;;5.82;;
45254;SDS011;30989;52.078;21.014;2023-04-25T03:04:36;10.80;;;5.68;;
45254;SDS011;30989;52.078;21.014;2023-04-25T03:07:01;14.85;;;5.18;;
45254;SDS011;30989;52.078;21.014;2023-04-25T03:09:27;9.55;;;4.75;;
45254;SDS011;30989;52.078;21.014;2023-04-25T03:11:53;11.48;;;5.05;;
45254;SDS011;30989;52.078;21.014;2023-04-25T03:14:19;11.40;;;6.35;;
45254;SDS011;30989;52.078;21.014;2023-04-25T03:16:44;10.27;;;5.38;;
45254;SDS011;30989;52.078;21.014;2023-04-25T03:19:10;9.25;;;4.97;;
45254;SDS011;30989;52.078;21.014;2023-04-25T03:21:36;7.30;;;4.63;;
45254;SDS011;30989;52.078;21.014;2023-04-25T03:24:02;9.32;;;4.35;;
45254;SDS011;30989;52.078;21.014;2023-04-25T03:26:30;13.00;;;5.10;;
45254;SDS011;30989;52.078;21.014;2023-04-25T03:28:55;8.82;;;5.13;;
45254;SDS011;30989;52.078;21.014;2023-04-25T03:31:21;8.68;;;5.43;;
45254;SDS011;30989;52.078;21.014;2023-04-25T03:33:47;9.40;;;5.07;;
45254;SDS011;30989;52.078;21.014;2023-04-25T03:36:13;11.60;;;4.70;;
45254;SDS011;30989;52.078;21.014;2023-04-25T03:38:38;10.07;;;4.43;;
45254;SDS011;30989;52.078;21.014;2023-04-25T03:41:07;7.47;;;4.85;;
45254;SDS011;30989;52.078;21.014;2023-04-25T03:43:38;7.50;;;4.00;;
45254;SDS011;30989;52.078;21.014;2023-04-25T03:46:09;8.43;;;5.10;;
45254;SDS011;30989;52.078;21.014;2023-04-25T03:48:34;8.50;;;4.85;;
45254;SDS011;30989;52.078;21.014;2023-04-25T03:51:00;10.10;;;4.13;;
45254;SDS011;30989;52.078;21.014;2023-04-25T03:53:26;7.72;;;3.92;;
45254;SDS011;30989;52.078;21.014;2023-04-25T03:56:24;6.40;;;4.18;;
45254;SDS011;30989;52.078;21.014;2023-04-25T03:58:57;8.77;;;4.05;;
45254;SDS011;30989;52.078;21.014;2023-04-25T04:01:24;7.30;;;4.50;;
45254;SDS011;30989;52.078;21.014;2023-04-25T04:03:51;6.90;;;3.75;;
45254;SDS011;30989;52.078;21.014;2023-04-25T04:06:17;10.30;;;3.83;;
45254;SDS011;30989;52.078;21.014;2023-04-25T04:08:46;11.77;;;4.15;;
45254;SDS011;30989;52.078;21.014;2023-04-25T04:11:14;9.13;;;4.22;;
45254;SDS011;30989;52.078;21.014;2023-04-25T04:13:40;7.13;;;4.03;;
45254;SDS011;30989;52.078;21.014;2023-04-25T04:16:07;6.93;;;3.97;;
45254;SDS011;30989;52.078;21.014;2023-04-25T04:18:33;9.60;;;3.95;;
45254;SDS011;30989;52.078;21.014;2023-04-25T04:20:58;7.55;;;4.38;;
45254;SDS011;30989;52.078;21.014;2023-04-25T04:23:27;5.57;;;3.20;;
45254;SDS011;30989;52.078;21.014;2023-04-25T04:25:54;7.10;;;3.92;;
45254;SDS011;30989;52.078;21.014;2023-04-25T04:28:33;9.60;;;4.60;;
45254;SDS011;30989;52.078;21.014;2023-04-25T04:31:04;7.47;;;4.63;;
45254;SDS011;30989;52.078;21.014;2023-04-25T04:33:29;9.35;;;4.88;;
45254;SDS011;30989;52.078;21.014;2023-04-25T04:36:00;6.70;;;4.25;;
45254;SDS011;30989;52.078;21.014;2023-04-25T04:38:26;7.13;;;4.38;;
45254;SDS011;30989;52.078;21.014;2023-04-25T04:40:55;6.85;;;5.05;;
45254;SDS011;30989;52.078;21.014;2023-04-25T04:43:31;8.27;;;5.05;;
45254;SDS011;30989;52.078;21.014;2023-04-25T04:46:20;6.47;;;4.20;;
45254;SDS011;30989;52.078;21.014;2023-04-25T04:49:10;7.80;;;4.10;;
45254;SDS011;30989;52.078;21.014;2023-04-25T04:51:41;7.55;;;4.53;;
45254;SDS011;30989;52.078;21.014;2023-04-25T04:54:34;9.75;;;4.70;;
45254;SDS011;30989;52.078;21.014;2023-04-25T04:57:23;8.05;;;4.72;;
45254;SDS011;30989;52.078;21.014;2023-04-25T05:00:10;9.73;;;4.93;;
45254;SDS011;30989;52.078;21.014;2023-04-25T05:03:00;8.95;;;5.60;;
45254;SDS011;30989;52.078;21.014;2023-04-25T05:05:48;6.75;;;4.40;;
45254;SDS011;30989;52.078;21.014;2023-04-25T05:08:34;7.60;;;4.60;;
45254;SDS011;30989;52.078;21.014;2023-04-25T05:11:09;10.88;;;4.80;;
45254;SDS011;30989;52.078;21.014;2023-04-25T05:14:00;6.72;;;3.88;;
45254;SDS011;30989;52.078;21.014;2023-04-25T05:16:52;8.73;;;5.22;;
45254;SDS011;30989;52.078;21.014;2023-04-25T05:19:47;9.18;;;5.28;;
45254;SDS011;30989;52.078;21.014;2023-04-25T05:22:23;10.85;;;5.28;;
45254;SDS011;30989;52.078;21.014;2023-04-25T05:25:10;15.07;;;5.28;;
45254;SDS011;30989;52.078;21.014;2023-04-25T05:28:14;8.07;;;5.20;;
45254;SDS011;30989;52.078;21.014;2023-04-25T05:30:57;7.40;;;4.70;;
45254;SDS011;30989;52.078;21.014;2023-04-25T05:33:42;11.48;;;4.78;;
45254;SDS011;30989;52.078;21.014;2023-04-25T05:36:08;16.50;;;5.57;;
45254;SDS011;30989;52.078;21.014;2023-04-25T05:38:34;13.07;;;5.15;;
45254;SDS011;30989;52.078;21.014;2023-04-25T05:41:17;9.50;;;5.45;;
45254;SDS011;30989;52.078;21.014;2023-04-25T05:43:48;10.07;;;5.97;;
45254;SDS011;30989;52.078;21.014;2023-04-25T05:46:34;9.32;;;5.18;;
45254;SDS011;30989;52.078;21.014;2023-04-25T05:49:18;10.27;;;4.68;;
45254;SDS011;30989;52.078;21.014;2023-04-25T05:52:03;7.82;;;4.75;;
45254;SDS011;30989;52.078;21.014;2023-04-25T05:54:46;9.23;;;5.63;;
45254;SDS011;30989;52.078;21.014;2023-04-25T05:57:22;9.13;;;5.30;;
45254;SDS011;30989;52.078;21.014;2023-04-25T05:59:48;10.68;;;4.95;;
45254;SDS011;30989;52.078;21.014;2023-04-25T06:02:16;8.13;;;4.57;;
45254;SDS011;30989;52.078;21.014;2023-04-25T06:04:42;9.52;;;5.25;;
45254;SDS011;30989;52.078;21.014;2023-04-25T06:07:08;7.97;;;5.20;;
45254;SDS011;30989;52.078;21.014;2023-04-25T06:09:34;10.13;;;6.50;;
45254;SDS011;30989;52.078;21.014;2023-04-25T06:12:00;9.63;;;5.43;;
45254;SDS011;30989;52.078;21.014;2023-04-25T06:14:27;8.52;;;5.50;;
45254;SDS011;30989;52.078;21.014;2023-04-25T06:16:53;9.00;;;6.15;;
45254;SDS011;30989;52.078;21.014;2023-04-25T06:19:19;10.82;;;6.45;;
45254;SDS011;30989;52.078;21.014;2023-04-25T06:21:44;10.73;;;5.90;;
45254;SDS011;30989;52.078;21.014;2023-04-25T06:24:10;9.52;;;5.80;;
45254;SDS011;30989;52.078;21.014;2023-04-25T06:26:36;19.73;;;7.90;;
45254;SDS011;30989;52.078;21.014;2023-04-25T06:29:02;10.32;;;5.93;;
45254;SDS011;30989;52.078;21.014;2023-04-25T06:31:27;8.57;;;5.38;;
45254;SDS011;30989;52.078;21.014;2023-04-25T06:33:55;8.32;;;5.30;;
45254;SDS011;30989;52.078;21.014;2023-04-25T06:36:22;7.50;;;4.68;;
45254;SDS011;30989;52.078;21.014;2023-04-25T06:38:54;17.70;;;6.03;;
45254;SDS011;30989;52.078;21.014;2023-04-25T06:41:22;9.13;;;4.65;;
45254;SDS011;30989;52.078;21.014;2023-04-25T06:43:47;7.88;;;5.00;;
45254;SDS011;30989;52.078;21.014;2023-04-25T06:46:31;7.32;;;4.63;;
45254;SDS011;30989;52.078;21.014;2023-04-25T06:48:58;11.52;;;4.90;;
45254;SDS011;30989;52.078;21.014;2023-04-25T06:51:23;7.90;;;4.75;;
45254;SDS011;30989;52.078;21.014;2023-04-25T06:53:51;7.78;;;4.40;;
45254;SDS011;30989;52.078;21.014;2023-04-25T06:56:25;7.43;;;4.65;;
45254;SDS011;30989;52.078;21.014;2023-04-25T06:59:04;6.97;;;4.57;;
45254;SDS011;30989;52.078;21.014;2023-04-25T07:01:35;7.70;;;4.50;;
45254;SDS011;30989;52.078;21.014;2023-04-25T07:04:04;7.57;;;4.55;;
45254;SDS011;30989;52.078;21.014;2023-04-25T07:06:32;7.68;;;4.75;;
45254;SDS011;30989;52.078;21.014;2023-04-25T07:08:57;7.00;;;4.32;;
45254;SDS011;30989;52.078;21.014;2023-04-25T07:11:23;6.43;;;4.00;;
45254;SDS011;30989;52.078;21.014;2023-04-25T07:13:49;8.50;;;3.95;;
45254;SDS011;30989;52.078;21.014;2023-04-25T07:16:15;7.80;;;4.30;;
45254;SDS011;30989;52.078;21.014;2023-04-25T07:18:41;7.63;;;4.38;;
45254;SDS011;30989;52.078;21.014;2023-04-25T07:21:08;8.38;;;4.15;;
45254;SDS011;30989;52.078;21.014;2023-04-25T07:23:35;8.65;;;4.95;;
45254;SDS011;30989;52.078;21.014;2023-04-25T07:28:33;5.22;;;3.85;;
45254;SDS011;30989;52.078;21.014;2023-04-25T07:30:58;7.30;;;4.75;;
45254;SDS011;30989;52.078;21.014;2023-04-25T07:33:24;5.60;;;3.20;;
45254;SDS011;30989;52.078;21.014;2023-04-25T07:35:49;7.90;;;3.67;;
45254;SDS011;30989;52.078;21.014;2023-04-25T07:38:16;7.32;;;4.55;;
45254;SDS011;30989;52.078;21.014;2023-04-25T07:40:42;6.05;;;3.85;;
45254;SDS011;30989;52.078;21.014;2023-04-25T07:43:09;6.10;;;3.60;;
45254;SDS011;30989;52.078;21.014;2023-04-25T07:45:47;7.30;;;3.17;;
45254;SDS011;30989;52.078;21.014;2023-04-25T07:48:18;6.32;;;3.70;;
45254;SDS011;30989;52.078;21.014;2023-04-25T07:50:45;8.50;;;4.07;;
45254;SDS011;30989;52.078;21.014;2023-04-25T07:53:11;6.25;;;3.75;;
45254;SDS011;30989;52.078;21.014;2023-04-25T07:55:43;6.45;;;3.42;;
45254;SDS011;30989;52.078;21.014;2023-04-25T07:58:15;4.82;;;3.13;;
45254;SDS011;30989;52.078;21.014;2023-04-25T08:00:47;5.82;;;3.30;;
45254;SDS011;30989;52.078;21.014;2023-04-25T08:03:33;5.15;;;3.13;;
45254;SDS011;30989;52.078;21.014;2023-04-25T08:06:00;5.35;;;2.72;;
45254;SDS011;30989;52.078;21.014;2023-04-25T08:08:29;5.18;;;3.25;;
45254;SDS011;30989;52.078;21.014;2023-04-25T08:10:54;4.88;;;2.33;;
45254;SDS011;30989;52.078;21.014;2023-04-25T08:13:20;4.70;;;2.72;;
45254;SDS011;30989;52.078;21.014;2023-04-25T08:15:46;5.22;;;3.03;;
45254;SDS011;30989;52.078;21.014;2023-04-25T08:18:11;5.22;;;3.78;;
45254;SDS011;30989;52.078;21.014;2023-04-25T08:20:37;6.40;;;3.20;;
45254;SDS011;30989;52.078;21.014;2023-04-25T08:23:05;5.60;;;3.10;;
45254;SDS011;30989;52.078;21.014;2023-04-25T08:25:53;4.78;;;2.70;;
45254;SDS011;30989;52.078;21.014;2023-04-25T08:28:23;4.68;;;2.63;;
45254;SDS011;30989;52.078;21.014;2023-04-25T08:30:49;4.68;;;2.97;;
45254;SDS011;30989;52.078;21.014;2023-04-25T08:33:18;3.72;;;2.20;;
45254;SDS011;30989;52.078;21.014;2023-04-25T08:36:00;7.00;;;2.95;;
45254;SDS011;30989;52.078;21.014;2023-04-25T08:38:26;4.85;;;2.92;;
45254;SDS011;30989;52.078;21.014;2023-04-25T08:40:52;5.13;;;3.08;;
45254;SDS011;30989;52.078;21.014;2023-04-25T08:43:20;5.53;;;3.33;;
45254;SDS011;30989;52.078;21.014;2023-04-25T08:45:47;5.78;;;3.30;;
45254;SDS011;30989;52.078;21.014;2023-04-25T08:48:21;7.55;;;3.15;;
45254;SDS011;30989;52.078;21.014;2023-04-25T08:50:50;5.18;;;3.08;;
45254;SDS011;30989;52.078;21.014;2023-04-25T08:53:27;6.43;;;3.33;;
45254;SDS011;30989;52.078;21.014;2023-04-25T08:55:57;5.03;;;3.10;;
45254;SDS011;30989;52.078;21.014;2023-04-25T08:58:24;5.28;;;3.00;;
45254;SDS011;30989;52.078;21.014;2023-04-25T09:00:50;5.88;;;3.38;;
45254;SDS011;30989;52.078;21.014;2023-04-25T09:03:19;4.95;;;3.00;;
45254;SDS011;30989;52.078;21.014;2023-04-25T09:05:46;4.78;;;2.88;;
45254;SDS011;30989;52.078;21.014;2023-04-25T09:08:14;6.30;;;3.03;;
45254;SDS011;30989;52.078;21.014;2023-04-25T09:10:40;5.32;;;3.60;;
45254;SDS011;30989;52.078;21.014;2023-04-25T09:13:11;6.50;;;3.05;;
45254;SDS011;30989;52.078;21.014;2023-04-25T09:16:13;4.55;;;3.03;;
45254;SDS011;30989;52.078;21.014;2023-04-25T09:19:00;5.75;;;3.60;;
45254;SDS011;30989;52.078;21.014;2023-04-25T09:21:27;5.88;;;3.63;;
45254;SDS011;30989;52.078;21.014;2023-04-25T09:23:52;6.05;;;3.95;;
45254;SDS011;30989;52.078;21.014;2023-04-25T09:26:20;6.75;;;3.55;;
45254;SDS011;30989;52.078;21.014;2023-04-25T09:28:46;5.55;;;3.60;;
45254;SDS011;30989;52.078;21.014;2023-04-25T09:31:24;5.20;;;3.42;;
45254;SDS011;30989;52.078;21.014;2023-04-25T09:33:58;4.75;;;3.33;;
45254;SDS011;30989;52.078;21.014;2023-04-25T09:36:26;6.68;;;3.50;;
45254;SDS011;30989;52.078;21.014;2023-04-25T09:39:14;8.32;;;3.55;;
45254;SDS011;30989;52.078;21.014;2023-04-25T09:41:53;5.32;;;3.22;;
45254;SDS011;30989;52.078;21.014;2023-04-25T09:44:23;6.35;;;3.08;;
45254;SDS011;30989;52.078;21.014;2023-04-25T09:46:50;5.28;;;3.47;;
45254;SDS011;30989;52.078;21.014;2023-04-25T09:49:22;8.20;;;3.70;;
45254;SDS011;30989;52.078;21.014;2023-04-25T09:52:08;7.10;;;3.72;;
45254;SDS011;30989;52.078;21.014;2023-04-25T09:54:53;4.95;;;3.33;;
45254;SDS011;30989;52.078;21.014;2023-04-25T09:57:25;6.65;;;3.17;;
45254;SDS011;30989;52.078;21.014;2023-04-25T09:59:53;5.88;;;3.05;;
45254;SDS011;30989;52.078;21.014;2023-04-25T10:02:21;7.63;;;3.63;;
45254;SDS011;30989;52.078;21.014;2023-04-25T10:04:53;8.75;;;4.07;;
45254;SDS011;30989;52.078;21.014;2023-04-25T10:07:25;8.63;;;4.43;;
45254;SDS011;30989;52.078;21.014;2023-04-25T10:09:55;6.35;;;3.65;;
45254;SDS011;30989;52.078;21.014;2023-04-25T10:12:26;5.53;;;3.65;;
45254;SDS011;30989;52.078;21.014;2023-04-25T10:14:52;8.32;;;4.47;;
45254;SDS011;30989;52.078;21.014;2023-04-25T10:17:17;5.65;;;4.03;;
45254;SDS011;30989;52.078;21.014;2023-04-25T10:19:45;6.88;;;4.30;;
45254;SDS011;30989;52.078;21.014;2023-04-25T10:25:00;6.57;;;4.45;;
45254;SDS011;30989;52.078;21.014;2023-04-25T10:27:28;7.40;;;4.32;;
45254;SDS011;30989;52.078;21.014;2023-04-25T10:30:04;6.53;;;3.90;;
45254;SDS011;30989;52.078;21.014;2023-04-25T10:32:41;7.13;;;3.85;;
45254;SDS011;30989;52.078;21.014;2023-04-25T10:35:17;6.20;;;4.00;;
45254;SDS011;30989;52.078;21.014;2023-04-25T10:40:30;6.43;;;4.18;;
45254;SDS011;30989;52.078;21.014;2023-04-25T10:45:54;6.95;;;4.70;;
45254;SDS011;30989;52.078;21.014;2023-04-25T10:48:30;7.47;;;4.53;;
45254;SDS011;30989;52.078;21.014;2023-04-25T10:51:18;8.50;;;4.38;;
45254;SDS011;30989;52.078;21.014;2023-04-25T10:53:46;9.98;;;4.47;;
45254;SDS011;30989;52.078;21.014;2023-04-25T10:56:21;7.20;;;4.88;;
45254;SDS011;30989;52.078;21.014;2023-04-25T10:58:48;9.05;;;5.50;;
45254;SDS011;30989;52.078;21.014;2023-04-25T11:01:14;7.65;;;4.80;;
45254;SDS011;30989;52.078;21.014;2023-04-25T11:03:45;6.90;;;4.65;;
45254;SDS011;30989;52.078;21.014;2023-04-25T11:06:15;6.82;;;4.68;;
45254;SDS011;30989;52.078;21.014;2023-04-25T11:08:48;7.53;;;4.35;;
45254;SDS011;30989;52.078;21.014;2023-04-25T11:11:16;7.32;;;5.13;;
45254;SDS011;30989;52.078;21.014;2023-04-25T11:13:43;6.47;;;4.95;;
45254;SDS011;30989;52.078;21.014;2023-04-25T11:16:09;9.02;;;4.35;;
45254;SDS011;30989;52.078;21.014;2023-04-25T11:18:34;5.57;;;3.38;;
45254;SDS011;30989;52.078;21.014;2023-04-25T11:21:00;5.57;;;3.55;;
45254;SDS011;30989;52.078;21.014;2023-04-25T11:23:28;7.10;;;3.63;;
45254;SDS011;30989;52.078;21.014;2023-04-25T11:25:55;7.30;;;3.17;;
45254;SDS011;30989;52.078;21.014;2023-04-25T11:28:21;5.32;;;3.75;;
45254;SDS011;30989;52.078;21.014;2023-04-25T11:30:50;4.10;;;2.53;;
45254;SDS011;30989;52.078;21.014;2023-04-25T11:33:15;7.82;;;3.60;;
45254;SDS011;30989;52.078;21.014;2023-04-25T11:35:42;7.28;;;4.28;;
45254;SDS011;30989;52.078;21.014;2023-04-25T11:38:07;5.10;;;3.03;;
45254;SDS011;30989;52.078;21.014;2023-04-25T11:40:34;5.75;;;2.95;;
45254;SDS011;30989;52.078;21.014;2023-04-25T11:43:00;6.18;;;3.83;;
45254;SDS011;30989;52.078;21.014;2023-04-25T11:45:26;4.50;;;2.97;;
45254;SDS011;30989;52.078;21.014;2023-04-25T11:47:52;5.93;;;3.53;;
45254;SDS011;30989;52.078;21.014;2023-04-25T11:50:17;5.63;;;3.33;;
45254;SDS011;30989;52.078;21.014;2023-04-25T11:52:44;5.32;;;2.65;;
45254;SDS011;30989;52.078;21.014;2023-04-25T11:55:18;5.88;;;3.35;;
45254;SDS011;30989;52.078;21.014;2023-04-25T11:57:45;8.27;;;3.13;;
45254;SDS011;30989;52.078;21.014;2023-04-25T12:00:14;5.30;;;2.65;;
45254;SDS011;30989;52.078;21.014;2023-04-25T12:03:03;7.47;;;3.33;;
45254;SDS011;30989;52.078;21.014;2023-04-25T12:05:30;7.45;;;2.80;;
45254;SDS011;30989;52.078;21.014;2023-04-25T12:07:58;4.88;;;2.20;;
45254;SDS011;30989;52.078;21.014;2023-04-25T12:10:36;4.10;;;2.85;;
45254;SDS011;30989;52.078;21.014;2023-04-25T12:13:19;7.65;;;2.60;;
45254;SDS011;30989;52.078;21.014;2023-04-25T12:15:49;6.20;;;2.63;;
45254;SDS011;30989;52.078;21.014;2023-04-25T12:18:14;5.97;;;2.50;;
45254;SDS011;30989;52.078;21.014;2023-04-25T12:20:43;4.20;;;2.20;;
45254;SDS011;30989;52.078;21.014;2023-04-25T12:23:09;4.55;;;2.40;;
45254;SDS011;30989;52.078;21.014;2023-04-25T12:25:36;2.72;;;1.80;;
45254;SDS011;30989;52.078;21.014;2023-04-25T12:28:16;9.27;;;2.97;;
45254;SDS011;30989;52.078;21.014;2023-04-25T12:33:35;4.93;;;2.33;;
45254;SDS011;30989;52.078;21.014;2023-04-25T12:36:02;4.35;;;2.20;;
45254;SDS011;30989;52.078;21.014;2023-04-25T12:38:35;4.40;;;2.10;;
45254;SDS011;30989;52.078;21.014;2023-04-25T12:41:06;3.80;;;2.30;;
45254;SDS011;30989;52.078;21.014;2023-04-25T12:43:31;8.48;;;2.60;;
45254;SDS011;30989;52.078;21.014;2023-04-25T12:45:57;3.38;;;2.28;;
45254;SDS011;30989;52.078;21.014;2023-04-25T12:48:23;4.38;;;2.50;;
45254;SDS011;30989;52.078;21.014;2023-04-25T12:50:49;4.72;;;2.72;;
45254;SDS011;30989;52.078;21.014;2023-04-25T12:53:17;5.28;;;2.45;;
45254;SDS011;30989;52.078;21.014;2023-04-25T12:55:46;10.18;;;3.45;;
45254;SDS011;30989;52.078;21.014;2023-04-25T12:58:12;6.55;;;2.63;;
45254;SDS011;30989;52.078;21.014;2023-04-25T13:00:38;4.22;;;2.90;;
45254;SDS011;30989;52.078;21.014;2023-04-25T13:03:04;9.70;;;2.80;;
45254;SDS011;30989;52.078;21.014;2023-04-25T13:05:29;4.97;;;2.72;;
45254;SDS011;30989;52.078;21.014;2023-04-25T13:07:55;8.60;;;3.22;;
45254;SDS011;30989;52.078;21.014;2023-04-25T13:10:21;4.07;;;2.05;;
45254;SDS011;30989;52.078;21.014;2023-04-25T13:12:46;5.63;;;3.15;;
45254;SDS011;30989;52.078;21.014;2023-04-25T13:15:12;4.40;;;2.63;;
45254;SDS011;30989;52.078;21.014;2023-04-25T13:17:40;4.80;;;2.40;;
45254;SDS011;30989;52.078;21.014;2023-04-25T13:20:07;5.25;;;2.70;;
45254;SDS011;30989;52.078;21.014;2023-04-25T13:22:37;4.97;;;2.42;;
45254;SDS011;30989;52.078;21.014;2023-04-25T13:25:04;4.55;;;2.80;;
45254;SDS011;30989;52.078;21.014;2023-04-25T13:27:31;6.85;;;2.78;;
45254;SDS011;30989;52.078;21.014;2023-04-25T13:29:59;7.40;;;2.85;;
45254;SDS011;30989;52.078;21.014;2023-04-25T13:32:26;4.40;;;2.90;;
45254;SDS011;30989;52.078;21.014;2023-04-25T13:34:52;5.97;;;3.20;;
45254;SDS011;30989;52.078;21.014;2023-04-25T13:37:18;4.78;;;2.63;;
45254;SDS011;30989;52.078;21.014;2023-04-25T13:39:43;6.57;;;3.30;;
45254;SDS011;30989;52.078;21.014;2023-04-25T13:42:09;5.25;;;3.08;;
45254;SDS011;30989;52.078;21.014;2023-04-25T13:44:34;6.47;;;3.15;;
45254;SDS011;30989;52.078;21.014;2023-04-25T13:47:00;4.97;;;2.58;;
45254;SDS011;30989;52.078;21.014;2023-04-25T13:49:26;8.20;;;3.42;;
45254;SDS011;30989;52.078;21.014;2023-04-25T13:51:51;5.10;;;3.13;;
45254;SDS011;30989;52.078;21.014;2023-04-25T13:54:17;11.43;;;3.38;;
45254;SDS011;30989;52.078;21.014;2023-04-25T13:56:42;9.40;;;3.75;;
45254;SDS011;30989;52.078;21.014;2023-04-25T13:59:08;7.13;;;4.07;;
45254;SDS011;30989;52.078;21.014;2023-04-25T14:01:33;6.07;;;3.90;;
45254;SDS011;30989;52.078;21.014;2023-04-25T14:04:00;5.68;;;3.42;;
45254;SDS011;30989;52.078;21.014;2023-04-25T14:06:26;8.70;;;4.30;;
45254;SDS011;30989;52.078;21.014;2023-04-25T14:08:52;5.65;;;4.05;;
45254;SDS011;30989;52.078;21.014;2023-04-25T14:11:19;5.85;;;4.03;;
45254;SDS011;30989;52.078;21.014;2023-04-25T14:13:44;8.50;;;4.20;;
45254;SDS011;30989;52.078;21.014;2023-04-25T14:16:10;6.72;;;4.15;;
45254;SDS011;30989;52.078;21.014;2023-04-25T14:18:35;12.10;;;5.63;;
45254;SDS011;30989;52.078;21.014;2023-04-25T14:21:01;8.25;;;4.38;;
45254;SDS011;30989;52.078;21.014;2023-04-25T14:23:26;7.63;;;5.22;;
45254;SDS011;30989;52.078;21.014;2023-04-25T14:25:52;7.38;;;4.57;;
45254;SDS011;30989;52.078;21.014;2023-04-25T14:28:17;7.97;;;4.38;;
45254;SDS011;30989;52.078;21.014;2023-04-25T14:30:43;6.72;;;4.72;;
45254;SDS011;30989;52.078;21.014;2023-04-25T14:33:08;7.38;;;4.63;;
45254;SDS011;30989;52.078;21.014;2023-04-25T14:35:34;7.13;;;5.00;;
45254;SDS011;30989;52.078;21.014;2023-04-25T14:38:00;9.75;;;4.63;;
45254;SDS011;30989;52.078;21.014;2023-04-25T14:40:25;8.82;;;5.28;;
45254;SDS011;30989;52.078;21.014;2023-04-25T14:42:51;8.18;;;4.43;;
45254;SDS011;30989;52.078;21.014;2023-04-25T14:45:17;8.30;;;4.47;;
45254;SDS011;30989;52.078;21.014;2023-04-25T14:47:42;7.10;;;4.60;;
45254;SDS011;30989;52.078;21.014;2023-04-25T14:50:08;7.78;;;4.70;;
45254;SDS011;30989;52.078;21.014;2023-04-25T14:52:34;8.95;;;5.13;;
45254;SDS011;30989;52.078;21.014;2023-04-25T14:55:00;10.68;;;4.88;;
45254;SDS011;30989;52.078;21.014;2023-04-25T14:57:30;7.28;;;5.25;;